Etretat — FIDP — position and weather

sailwx.info

Track history (hours):
 
Tides and Currents Weather Stations Pressure Air Temp Water Temp Dewpoint Dewpoint Depression Visibility Wind Speed Wind Dir Waves Ship Positions

Etretat

Last reported at 2016-Sep-26 13:33 UTC. Time now 2016-Sep-26 14:00 UTC.
Position N 49°29' E 000°07'.

Length 187 m; draft 6 m.

Type: Ship. MMSI: 228022900.

Date/timePositionNaut miles runAvg speedWind from/ knotsBaromVisibWave heightAir tempDewpointWater temp
2016-Sep-26 13:33N 49°29' E 000°07'0 0.0
2016-Sep-26 11:34N 49°29' E 000°07'0 0.0
2016-Sep-26 08:33N 49°29' E 000°07'32 5.3
2016-Sep-26 02:33N 49°56' W 000°19'6112.1
2016-Sep-25 21:34N 50°49' W 001°06'5112.7
2016-Sep-25 17:33N 50°04' W 000°29'2020.2
2016-Sep-25 16:33N 49°46' W 000°15'2019.8
2016-Sep-25 15:33N 49°30' E 000°03'3 2.6
2016-Sep-25 14:33N 49°29' E 000°07'0 0.0
2016-Sep-25 12:33N 49°29' E 000°07'0 0.0
2016-Sep-25 11:33N 49°29' E 000°07'0 0.0
2016-Sep-25 10:33N 49°29' E 000°07'0 0.0
2016-Sep-25 09:33N 49°29' E 000°07'0 0.0
2016-Sep-25 07:33N 49°29' E 000°07'12 4.1
2016-Sep-25 04:33N 49°39' W 000°05'5513.2
2016-Sep-25 00:25N 50°28' W 000°44'2312.6
2016-Sep-24 22:33N 50°47' W 001°06'2 2.0
2016-Sep-24 21:33N 50°49' W 001°06'9 4.7
2016-Sep-24 19:33N 50°41' W 000°57'2020.4
2016-Sep-24 18:33N 50°23' W 000°42'2020.4
2016-Sep-24 17:33N 50°05' W 000°28'2020.2
2016-Sep-24 16:33N 49°47' W 000°12'2211.0
2016-Sep-24 14:33N 49°29' E 000°07'0 0.0
2016-Sep-24 12:33N 49°29' E 000°07'0 0.0
2016-Sep-24 10:33N 49°29' E 000°07'0 0.0
2016-Sep-24 09:34N 49°29' E 000°07'21 3.5
2016-Sep-24 03:33N 49°47' W 000°12'1414.2
2016-Sep-24 02:33N 49°59' W 000°22'1413.7
2016-Sep-24 01:33N 50°12' W 000°31'1413.9
2016-Sep-24 00:33N 50°23' W 000°42'29 5.9
2016-Sep-23 19:33N 50°49' W 001°06'0 0.0
2016-Sep-23 17:33N 50°49' W 001°06'0 0.0
2016-Sep-23 16:34N 50°49' W 001°06'0 0.0
2016-Sep-23 15:33N 50°49' W 001°06'0 0.0
2016-Sep-23 13:33N 50°49' W 001°06'0 0.0
2016-Sep-23 09:33N 50°49' W 001°06'0 0.0
2016-Sep-23 06:33N 50°49' W 001°06'2210.9
2016-Sep-23 04:33N 50°30' W 000°50'2518.9
2016-Sep-23 03:13N 50°07' W 000°31'1218.7
2016-Sep-23 02:33N 49°57' W 000°21'1918.8
2016-Sep-23 01:33N 49°41' W 000°06'3 2.6
2016-Sep-23 00:34N 49°40' W 000°09'2 1.7
2016-Sep-22 23:34N 49°39' W 000°12'10 3.3
2016-Sep-22 20:33N 49°33' W 000°01'6 0.8
2016-Sep-22 12:33N 49°29' E 000°07'12 1.5
2016-Sep-22 04:33N 49°39' W 000°03'9 8.7
2016-Sep-22 03:33N 49°46' W 000°10'5216.1
2016-Sep-22 00:20N 50°32' W 000°49'1316.4
2016-Sep-21 23:34N 50°43' W 000°59'7 7.2
2016-Sep-21 22:34N 50°49' W 001°06'11 3.8
2016-Sep-21 19:33N 50°39' W 000°56'6822.7
2016-Sep-21 16:34N 49°39' W 000°06'13 1.8
2016-Sep-21 09:33N 49°29' E 000°07'0 0.0
2016-Sep-21 08:33N 49°29' E 000°07'8 2.6
2016-Sep-21 05:34N 49°34' W 000°02'17 8.7
2016-Sep-21 03:34N 49°50' W 000°14'1615.4
2016-Sep-21 02:33N 50°04' W 000°26'3 0.3
2016-Sep-20 17:34N 50°06' W 000°28'4314.4
2016-Sep-20 14:33N 49°29' E 000°07'0 0.0
2016-Sep-20 13:33N 49°29' E 000°07'0 0.0
2016-Sep-20 10:33N 49°29' E 000°07'0 0.0
2016-Sep-20 08:33N 49°29' E 000°07'0 0.0
2016-Sep-20 07:33N 49°29' E 000°07'6 5.8
2016-Sep-20 06:34N 49°32' W 000°01'8311.8
2016-Sep-19 23:34N 50°44' W 001°04'7 1.6
2016-Sep-19 19:33N 50°40' W 000°57'2019.7
2016-Sep-19 18:33N 50°23' W 000°42'4321.7
2016-Sep-19 16:33N 49°44' W 000°13'19 9.6
2016-Sep-19 14:33N 49°29' E 000°07'0 0.0
2016-Sep-19 13:33N 49°29' E 000°07'0 0.0
2016-Sep-19 12:33N 49°29' E 000°07'0 0.0
2016-Sep-19 11:33N 49°29' E 000°07'0 0.0
2016-Sep-19 09:33N 49°29' E 000°07'0 0.0
2016-Sep-19 07:33N 49°29' E 000°07'2 2.3
2016-Sep-19 06:33N 49°30' E 000°03'4714.9
2016-Sep-19 03:26N 50°11' W 000°31'2014.3
2016-Sep-19 02:03N 50°28' W 000°45'8 5.2
2016-Sep-19 00:33N 50°36' W 000°47'8 1.6
2016-Sep-18 19:33N 50°41' W 000°57'8120.2
2016-Sep-18 15:33N 49°30' E 000°02'3 3.0
2016-Sep-18 14:33N 49°29' E 000°07'0 0.0
2016-Sep-18 10:33N 49°29' E 000°07'0 0.0
2016-Sep-18 09:33N 49°29' E 000°07'69 8.7
2016-Sep-18 01:33N 50°29' W 000°47'7 7.3
2016-Sep-18 00:33N 50°36' W 000°52'15 7.6
2016-Sep-17 22:34N 50°48' W 001°07'1 1.1
2016-Sep-17 21:33N 50°49' W 001°06'0 0.2
2016-Sep-17 20:34N 50°49' W 001°06'1713.3
2016-Sep-17 19:16N 50°35' W 000°50'7513.2
2016-Sep-17 13:33N 49°29' E 000°07'0 0.0
2016-Sep-17 12:33N 49°29' E 000°07'0 0.0
2016-Sep-17 10:33N 49°29' E 000°07'0 0.0
2016-Sep-17 09:33N 49°29' E 000°07'0 0.0
2016-Sep-17 08:33N 49°29' E 000°07'0 0.0
2016-Sep-17 07:34N 49°29' E 000°07'8 3.9
2016-Sep-17 05:33N 49°34' W 000°03'1514.7
2016-Sep-17 04:34N 49°47' W 000°12'5413.5
2016-Sep-17 00:33N 50°34' W 000°54'16 2.3
2016-Sep-16 17:33N 50°49' W 001°06'0 0.0
2016-Sep-16 15:33N 50°49' W 001°06'  
Track history (hours):
 
Tides and Currents Weather Stations Pressure Air Temp Water Temp Dewpoint Dewpoint Depression Visibility Wind Speed Wind Dir Waves Ship Positions

Etretat

Last reported at 2016-Sep-26 13:33 UTC. Time now 2016-Sep-26 14:00 UTC.
Position N 49°29' E 000°07'.

Length 187 m; draft 6 m.

Type: Ship. MMSI: 228022900.

Date/timePositionNaut miles runAvg speedWind from/ knotsBaromVisibWave heightAir tempDewpointWater temp
2016-Sep-26 13:33N 49°29' E 000°07'0 0.0
2016-Sep-26 11:34N 49°29' E 000°07'0 0.0
2016-Sep-26 08:33N 49°29' E 000°07'32 5.3
2016-Sep-26 02:33N 49°56' W 000°19'6112.1
2016-Sep-25 21:34N 50°49' W 001°06'5112.7
2016-Sep-25 17:33N 50°04' W 000°29'2020.2
2016-Sep-25 16:33N 49°46' W 000°15'2019.8
2016-Sep-25 15:33N 49°30' E 000°03'3 2.6
2016-Sep-25 14:33N 49°29' E 000°07'0 0.0
2016-Sep-25 12:33N 49°29' E 000°07'0 0.0
2016-Sep-25 11:33N 49°29' E 000°07'0 0.0
2016-Sep-25 10:33N 49°29' E 000°07'0 0.0
2016-Sep-25 09:33N 49°29' E 000°07'0 0.0
2016-Sep-25 07:33N 49°29' E 000°07'12 4.1
2016-Sep-25 04:33N 49°39' W 000°05'5513.2
2016-Sep-25 00:25N 50°28' W 000°44'2312.6
2016-Sep-24 22:33N 50°47' W 001°06'2 2.0
2016-Sep-24 21:33N 50°49' W 001°06'9 4.7
2016-Sep-24 19:33N 50°41' W 000°57'2020.4
2016-Sep-24 18:33N 50°23' W 000°42'2020.4
2016-Sep-24 17:33N 50°05' W 000°28'2020.2
2016-Sep-24 16:33N 49°47' W 000°12'2211.0
2016-Sep-24 14:33N 49°29' E 000°07'0 0.0
2016-Sep-24 12:33N 49°29' E 000°07'0 0.0
2016-Sep-24 10:33N 49°29' E 000°07'0 0.0
2016-Sep-24 09:34N 49°29' E 000°07'21 3.5
2016-Sep-24 03:33N 49°47' W 000°12'1414.2
2016-Sep-24 02:33N 49°59' W 000°22'1413.7
2016-Sep-24 01:33N 50°12' W 000°31'1413.9
2016-Sep-24 00:33N 50°23' W 000°42'29 5.9
2016-Sep-23 19:33N 50°49' W 001°06'0 0.0
2016-Sep-23 17:33N 50°49' W 001°06'0 0.0
2016-Sep-23 16:34N 50°49' W 001°06'0 0.0
2016-Sep-23 15:33N 50°49' W 001°06'0 0.0
2016-Sep-23 13:33N 50°49' W 001°06'0 0.0
2016-Sep-23 09:33N 50°49' W 001°06'0 0.0
2016-Sep-23 06:33N 50°49' W 001°06'2210.9
2016-Sep-23 04:33N 50°30' W 000°50'2518.9
2016-Sep-23 03:13N 50°07' W 000°31'1218.7
2016-Sep-23 02:33N 49°57' W 000°21'1918.8
2016-Sep-23 01:33N 49°41' W 000°06'3 2.6
2016-Sep-23 00:34N 49°40' W 000°09'2 1.7
2016-Sep-22 23:34N 49°39' W 000°12'10 3.3
2016-Sep-22 20:33N 49°33' W 000°01'6 0.8
2016-Sep-22 12:33N 49°29' E 000°07'12 1.5
2016-Sep-22 04:33N 49°39' W 000°03'9 8.7
2016-Sep-22 03:33N 49°46' W 000°10'5216.1
2016-Sep-22 00:20N 50°32' W 000°49'1316.4
2016-Sep-21 23:34N 50°43' W 000°59'7 7.2
2016-Sep-21 22:34N 50°49' W 001°06'11 3.8
2016-Sep-21 19:33N 50°39' W 000°56'6822.7
2016-Sep-21 16:34N 49°39' W 000°06'13 1.8
2016-Sep-21 09:33N 49°29' E 000°07'0 0.0
2016-Sep-21 08:33N 49°29' E 000°07'8 2.6
2016-Sep-21 05:34N 49°34' W 000°02'17 8.7
2016-Sep-21 03:34N 49°50' W 000°14'1615.4
2016-Sep-21 02:33N 50°04' W 000°26'3 0.3
2016-Sep-20 17:34N 50°06' W 000°28'4314.4
2016-Sep-20 14:33N 49°29' E 000°07'0 0.0
2016-Sep-20 13:33N 49°29' E 000°07'0 0.0
2016-Sep-20 10:33N 49°29' E 000°07'0 0.0
2016-Sep-20 08:33N 49°29' E 000°07'0 0.0
2016-Sep-20 07:33N 49°29' E 000°07'6 5.8
2016-Sep-20 06:34N 49°32' W 000°01'8311.8
2016-Sep-19 23:34N 50°44' W 001°04'7 1.6
2016-Sep-19 19:33N 50°40' W 000°57'2019.7
2016-Sep-19 18:33N 50°23' W 000°42'4321.7
2016-Sep-19 16:33N 49°44' W 000°13'19 9.6
2016-Sep-19 14:33N 49°29' E 000°07'0 0.0
2016-Sep-19 13:33N 49°29' E 000°07'0 0.0
2016-Sep-19 12:33N 49°29' E 000°07'0 0.0
2016-Sep-19 11:33N 49°29' E 000°07'0 0.0
2016-Sep-19 09:33N 49°29' E 000°07'0 0.0
2016-Sep-19 07:33N 49°29' E 000°07'2 2.3
2016-Sep-19 06:33N 49°30' E 000°03'4714.9
2016-Sep-19 03:26N 50°11' W 000°31'2014.3
2016-Sep-19 02:03N 50°28' W 000°45'8 5.2
2016-Sep-19 00:33N 50°36' W 000°47'8 1.6
2016-Sep-18 19:33N 50°41' W 000°57'8120.2
2016-Sep-18 15:33N 49°30' E 000°02'3 3.0
2016-Sep-18 14:33N 49°29' E 000°07'0 0.0
2016-Sep-18 10:33N 49°29' E 000°07'0 0.0
2016-Sep-18 09:33N 49°29' E 000°07'69 8.7
2016-Sep-18 01:33N 50°29' W 000°47'7 7.3
2016-Sep-18 00:33N 50°36' W 000°52'15 7.6
2016-Sep-17 22:34N 50°48' W 001°07'1 1.1
2016-Sep-17 21:33N 50°49' W 001°06'0 0.2
2016-Sep-17 20:34N 50°49' W 001°06'1713.3
2016-Sep-17 19:16N 50°35' W 000°50'7513.2
2016-Sep-17 13:33N 49°29' E 000°07'0 0.0
2016-Sep-17 12:33N 49°29' E 000°07'0 0.0
2016-Sep-17 10:33N 49°29' E 000°07'0 0.0
2016-Sep-17 09:33N 49°29' E 000°07'0 0.0
2016-Sep-17 08:33N 49°29' E 000°07'0 0.0
2016-Sep-17 07:34N 49°29' E 000°07'8 3.9
2016-Sep-17 05:33N 49°34' W 000°03'1514.7
2016-Sep-17 04:34N 49°47' W 000°12'5413.5
2016-Sep-17 00:33N 50°34' W 000°54'16 2.3
2016-Sep-16 17:33N 50°49' W 001°06'0 0.0
2016-Sep-16 15:33N 50°49' W 001°06'  

Dump ship's entire track history